Time;durP1;ratioP1;P1;durP2;ratioP2;P2;SDS_P1;SDS_P2;PMS_P1;PMS_P2;Temp;Humidity;BMP_temperature;BMP_pressure;BME280_temperature;BME280_humidity;BME280_pressure;Samples;Min_cycle;Max_cycle;Signal;HPM_P1;HPM_P2
2021/03/27 00:00:58;;;;;;;23.00;11.10;;;;;;;9.76;83.74;96272.66;5038815;28;20209;-74
2021/03/27 00:03:33;;;;;;;22.20;11.87;;;;;;;9.82;83.75;96265.88;5038541;28;20726;-74
2021/03/27 00:06:03;;;;;;;26.63;12.23;;;;;;;9.81;84.08;96269.50;5038218;28;20607;-74
2021/03/27 00:08:41;;;;;;;23.13;11.50;;;;;;;9.82;83.83;96253.53;5038321;28;20201;-75
2021/03/27 00:11:12;;;;;;;25.10;11.90;;;;;;;9.82;84.02;96261.41;5038667;28;20204;-74
2021/03/27 00:13:47;;;;;;;23.17;11.40;;;;;;;9.84;83.71;96256.81;5038486;28;20201;-74
2021/03/27 00:16:21;;;;;;;26.57;11.73;;;;;;;9.81;83.88;96265.06;5037242;28;20699;-74
2021/03/27 00:18:57;;;;;;;23.07;11.53;;;;;;;9.87;83.07;96251.19;5037997;28;20826;-74
2021/03/27 00:21:31;;;;;;;22.93;12.17;;;;;;;9.87;83.52;96258.28;5038755;28;20211;-74
2021/03/27 00:24:02;;;;;;;26.50;11.67;;;;;;;9.87;83.68;96255.66;5038244;28;20205;-74
2021/03/27 00:26:33;;;;;;;25.83;12.37;;;;;;;9.87;83.71;96253.84;5037390;28;20225;-74
2021/03/27 00:29:04;;;;;;;24.43;11.73;;;;;;;9.87;84.15;96243.31;5038706;28;20204;-74
2021/03/27 00:31:39;;;;;;;23.47;11.37;;;;;;;9.82;84.37;96243.00;5036532;28;21218;-74
2021/03/27 00:34:09;;;;;;;24.50;11.33;;;;;;;9.78;84.82;96239.06;5038153;28;20208;-74
2021/03/27 00:36:38;;;;;;;24.47;11.47;;;;;;;9.75;85.24;96241.25;5037359;28;20343;-74
2021/03/27 00:39:07;;;;;;;21.83;11.27;;;;;;;9.75;85.07;96236.00;5038316;28;20216;-74
2021/03/27 00:41:37;;;;;;;20.50;11.13;;;;;;;9.69;86.00;96232.22;5038028;28;20212;-74
2021/03/27 00:44:08;;;;;;;24.33;11.73;;;;;;;9.71;85.28;96243.41;5038614;28;20225;-74
2021/03/27 00:46:37;;;;;;;23.53;11.80;;;;;;;9.63;86.03;96249.69;5037040;28;20229;-74
2021/03/27 00:49:11;;;;;;;24.60;11.87;;;;;;;9.68;85.72;96250.00;5037175;28;20212;-74
2021/03/27 00:51:39;;;;;;;23.90;11.17;;;;;;;9.66;86.23;96247.53;5038526;28;20216;-74
2021/03/27 00:54:10;;;;;;;24.60;10.87;;;;;;;9.79;85.36;96243.34;5038088;28;20205;-74
2021/03/27 00:56:44;;;;;;;25.50;10.90;;;;;;;9.76;85.76;96248.13;5036488;28;20274;-74
2021/03/27 00:59:17;;;;;;;23.73;10.57;;;;;;;9.90;85.28;96252.66;5037865;28;20738;-74
2021/03/27 01:01:46;;;;;;;24.47;10.90;;;;;;;9.95;85.13;96259.06;5038285;28;20205;-74
2021/03/27 01:04:16;;;;;;;22.70;10.13;;;;;;;9.89;86.73;96262.38;5037433;28;20267;-74
2021/03/27 01:06:46;;;;;;;23.30;10.77;;;;;;;9.88;86.52;96271.28;5037371;28;20719;-74
2021/03/27 01:09:15;;;;;;;23.80;12.07;;;;;;;9.90;86.37;96282.47;5037750;28;20213;-74
2021/03/27 01:11:47;;;;;;;22.00;10.83;;;;;;;9.79;88.82;96319.66;5037955;28;20216;-74
2021/03/27 01:14:17;;;;;;;17.10;8.97;;;;;;;9.87;88.60;96343.31;5037460;28;20273;-74
2021/03/27 01:16:49;;;;;;;24.77;11.27;;;;;;;10.02;88.48;96333.75;5036699;28;20618;-74
2021/03/27 01:19:18;;;;;;;21.50;10.37;;;;;;;10.08;87.14;96343.63;5036955;28;20208;-73
2021/03/27 01:21:47;;;;;;;24.70;11.07;;;;;;;10.07;87.40;96339.34;5037229;28;20774;-74
2021/03/27 01:24:16;;;;;;;28.20;10.87;;;;;;;10.05;86.88;96340.50;5037183;28;20213;-74
2021/03/27 01:26:48;;;;;;;22.30;9.77;;;;;;;9.99;88.27;96343.81;5036200;28;20221;-74
2021/03/27 01:29:27;;;;;;;22.10;9.63;;;;;;;10.01;88.59;96341.84;5036710;28;20209;-74
2021/03/27 01:31:58;;;;;;;20.20;9.83;;;;;;;9.89;90.47;96332.63;5037572;28;20209;-74
2021/03/27 01:34:31;;;;;;;19.13;8.63;;;;;;;9.95;90.75;96332.78;5037552;28;20216;-74
2021/03/27 01:37:09;;;;;;;16.17;8.10;;;;;;;9.96;91.04;96318.63;5036374;28;20521;-74
2021/03/27 01:39:54;;;;;;;16.50;9.23;;;;;;;9.89;93.46;96325.56;5037899;28;20208;-74
2021/03/27 01:42:28;;;;;;;19.33;9.27;;;;;;;9.80;93.17;96315.22;5037594;28;20284;-74
2021/03/27 01:45:08;;;;;;;20.63;10.00;;;;;;;9.76;95.39;96306.88;5037180;28;20205;-74
2021/03/27 01:47:40;;;;;;;16.77;8.67;;;;;;;9.82;93.97;96300.91;5037520;28;20262;-74
2021/03/27 01:50:28;;;;;;;16.17;7.97;;;;;;;9.92;93.42;96293.63;5036981;28;20728;-74
2021/03/27 01:53:19;;;;;;;15.13;8.00;;;;;;;9.84;95.53;96301.56;5037381;28;20205;-74
2021/03/27 01:56:19;;;;;;;15.07;7.50;;;;;;;9.78;96.98;96302.22;5036626;28;20229;-74
2021/03/27 01:58:51;;;;;;;17.90;8.37;;;;;;;9.75;99.43;96296.50;5025710;28;20240;-74
2021/03/27 02:01:21;;;;;;;17.70;8.40;;;;;;;9.71;100.00;96290.75;5037235;28;20259;-74
2021/03/27 02:03:53;;;;;;;18.30;8.90;;;;;;;9.70;100.00;96294.38;5036934;28;20220;-74
2021/03/27 02:06:28;;;;;;;14.27;8.30;;;;;;;9.68;100.00;96294.72;5035740;28;20259;-74
2021/03/27 02:09:05;;;;;;;18.03;8.73;;;;;;;9.66;100.00;96292.28;5036533;28;20758;-74
2021/03/27 02:11:42;;;;;;;19.40;8.73;;;;;;;9.68;100.00;96289.47;5037521;28;20209;-74
2021/03/27 02:14:17;;;;;;;16.50;8.53;;;;;;;9.62;100.00;96296.19;5036916;28;20207;-74
2021/03/27 02:16:49;;;;;;;18.10;9.10;;;;;;;9.59;100.00;96286.03;5035532;28;20225;-74
2021/03/27 02:19:42;;;;;;;15.93;8.40;;;;;;;9.53;100.00;96291.97;5036349;28;20210;-74
2021/03/27 02:22:21;;;;;;;18.87;8.30;;;;;;;9.53;100.00;96293.78;5036558;28;20208;-74
2021/03/27 02:25:14;;;;;;;17.83;8.37;;;;;;;9.52;100.00;96289.50;5036779;28;20260;-75
2021/03/27 02:27:46;;;;;;;18.20;7.90;;;;;;;9.53;100.00;96285.88;5036658;28;20197;-74
2021/03/27 02:30:18;;;;;;;14.23;7.87;;;;;;;9.53;100.00;96291.16;5036662;28;20205;-74
2021/03/27 02:33:10;;;;;;;15.73;7.87;;;;;;;9.55;100.00;96283.91;5037113;28;20214;-74
2021/03/27 02:35:48;;;;;;;19.70;8.37;;;;;;;9.52;100.00;96290.34;5035335;28;20249;-74
2021/03/27 02:38:25;;;;;;;17.13;8.23;;;;;;;9.44;100.00;96289.53;5036924;28;20235;-74
2021/03/27 02:41:01;;;;;;;15.83;8.60;;;;;;;9.40;100.00;96301.38;5039401;28;20200;-74
2021/03/27 02:43:34;;;;;;;14.23;8.23;;;;;;;9.33;100.00;96297.75;5040002;28;20588;-74
2021/03/27 02:46:06;;;;;;;18.80;8.67;;;;;;;9.38;100.00;96298.09;5038859;28;21158;-74
2021/03/27 02:48:45;;;;;;;17.93;8.83;;;;;;;9.37;100.00;96301.72;5040010;28;20205;-74
2021/03/27 02:51:21;;;;;;;15.07;7.57;;;;;;;9.24;100.00;96283.00;5040000;28;20204;-74
2021/03/27 02:53:58;;;;;;;17.30;8.37;;;;;;;9.21;100.00;96280.72;5039429;28;20209;-74
2021/03/27 02:56:29;;;;;;;16.87;7.90;;;;;;;9.23;100.00;96297.16;5038529;28;20232;-74
2021/03/27 02:59:12;;;;;;;16.00;7.50;;;;;;;9.20;100.00;96294.84;5039712;28;20236;-74
2021/03/27 03:01:46;;;;;;;14.30;7.63;;;;;;;9.24;100.00;96290.88;5038996;28;20224;-74
2021/03/27 03:04:18;;;;;;;15.87;7.43;;;;;;;9.12;100.00;96298.28;5039575;28;20582;-74
2021/03/27 03:06:50;;;;;;;16.93;8.57;;;;;;;9.13;100.00;96310.47;5038674;28;20257;-74
2021/03/27 03:09:22;;;;;;;16.47;8.43;;;;;;;9.07;100.00;96323.44;5039136;28;20266;-74
2021/03/27 03:12:03;;;;;;;18.43;7.97;;;;;;;9.07;100.00;96325.25;5039915;28;20266;-74
2021/03/27 03:14:40;;;;;;;14.70;8.40;;;;;;;8.99;100.00;96341.84;5039882;28;20216;-74
2021/03/27 03:17:17;;;;;;;19.60;7.57;;;;;;;9.01;100.00;96341.69;5038538;28;20228;-74
2021/03/27 03:19:49;;;;;;;14.70;7.30;;;;;;;8.92;100.00;96348.75;5038808;28;20204;-74
2021/03/27 03:22:21;;;;;;;18.80;8.20;;;;;;;9.00;100.00;96346.13;5040227;28;20213;-74
2021/03/27 03:24:53;;;;;;;15.63;7.40;;;;;;;8.96;100.00;96343.97;5038979;28;20902;-74
2021/03/27 03:27:30;;;;;;;14.77;7.63;;;;;;;8.93;100.00;96354.84;5037714;28;20221;-74
2021/03/27 03:30:07;;;;;;;14.90;7.37;;;;;;;8.94;100.00;96359.91;5038039;28;20200;-74
2021/03/27 03:32:44;;;;;;;14.70;7.63;;;;;;;8.84;100.00;96367.13;5038927;28;20213;-74
2021/03/27 03:35:26;;;;;;;13.63;7.67;;;;;;;8.86;100.00;96373.06;5037685;28;20204;-74
2021/03/27 03:38:00;;;;;;;14.73;7.20;;;;;;;8.89;100.00;96380.63;5039219;28;20704;-73
2021/03/27 03:40:40;;;;;;;11.27;5.60;;;;;;;8.86;100.00;96383.56;5039178;28;20294;-73
2021/03/27 03:43:16;;;;;;;14.90;7.00;;;;;;;8.85;100.00;96394.25;5038808;28;20213;-73
2021/03/27 03:46:35;;;;;;;12.03;6.20;;;;;;;8.85;100.00;96389.81;5038301;28;20229;-74
2021/03/27 03:49:37;;;;;;;8.73;4.93;;;;;;;8.86;100.00;96390.63;5013732;28;20205;-73
2021/03/27 03:52:19;;;;;;;11.37;6.87;;;;;;;8.87;100.00;96398.38;5037995;28;20247;-73
2021/03/27 03:55:04;;;;;;;14.23;7.20;;;;;;;8.85;100.00;96389.81;5038723;28;20217;-73
2021/03/27 03:57:52;;;;;;;14.87;6.87;;;;;;;8.86;100.00;96383.56;5037918;28;20228;-74
2021/03/27 04:00:25;;;;;;;12.27;6.43;;;;;;;8.84;100.00;96387.34;5038418;28;20259;-73
2021/03/27 04:03:05;;;;;;;11.77;6.77;;;;;;;8.83;100.00;96381.25;5038939;28;20201;-74
2021/03/27 04:05:34;;;;;;;12.37;6.63;;;;;;;8.83;100.00;96385.69;5037642;28;20221;-73
2021/03/27 04:08:09;;;;;;;10.80;6.23;;;;;;;8.76;100.00;96384.72;5037837;28;20204;-74
2021/03/27 04:10:36;;;;;;;13.90;6.40;;;;;;;8.76;100.00;96388.16;5038473;28;20213;-74
2021/03/27 04:13:08;;;;;;;10.80;6.23;;;;;;;8.78;100.00;96391.47;5038557;28;20205;-74
2021/03/27 04:15:38;;;;;;;11.60;6.30;;;;;;;8.78;100.00;96388.00;5037678;28;20221;-74
2021/03/27 04:18:13;;;;;;;11.97;6.00;;;;;;;8.80;100.00;96401.78;5038309;28;20232;-74
2021/03/27 04:21:01;;;;;;;8.77;5.50;;;;;;;8.75;100.00;96394.38;5037822;28;20242;-74
2021/03/27 04:23:38;;;;;;;10.47;5.67;;;;;;;8.75;100.00;96402.28;5033307;28;20205;-74
2021/03/27 04:26:18;;;;;;;14.13;6.37;;;;;;;8.76;100.00;96403.91;5037503;28;20225;-74
2021/03/27 04:28:51;;;;;;;8.27;5.23;;;;;;;8.78;100.00;96409.00;5037147;28;20212;-74
2021/03/27 04:31:23;;;;;;;8.10;4.90;;;;;;;8.75;100.00;96412.78;5037818;28;20221;-74
2021/03/27 04:33:56;;;;;;;7.70;4.10;;;;;;;8.80;100.00;96409.69;5038849;28;21001;-73
2021/03/27 04:36:28;;;;;;;9.40;5.00;;;;;;;8.80;100.00;96402.59;5036786;28;20255;-74
2021/03/27 04:39:01;;;;;;;5.77;3.60;;;;;;;8.72;100.00;96405.22;5037580;28;20229;-73
2021/03/27 04:41:38;;;;;;;13.13;4.70;;;;;;;8.77;100.00;96405.56;5038559;28;20213;-74
2021/03/27 04:44:13;;;;;;;7.37;4.23;;;;;;;8.76;100.00;96389.97;5038081;28;20595;-73
2021/03/27 04:46:46;;;;;;;8.10;3.60;;;;;;;8.81;100.00;96387.69;5036928;28;20224;-73
2021/03/27 04:49:22;;;;;;;6.60;3.63;;;;;;;8.81;100.00;96401.63;5038016;28;20205;-74
2021/03/27 04:51:55;;;;;;;7.73;3.43;;;;;;;8.87;100.00;96414.13;5037273;28;20274;-73
2021/03/27 04:54:49;;;;;;;6.40;3.70;;;;;;;8.81;100.00;96422.66;5037059;28;20267;-73
2021/03/27 04:57:23;;;;;;;9.60;3.57;;;;;;;8.84;100.00;96435.44;5034499;28;20236;-73
2021/03/27 05:00:09;;;;;;;6.60;2.73;;;;;;;8.84;100.00;96432.81;5037723;28;20673;-73
2021/03/27 05:02:39;;;;;;;6.00;3.57;;;;;;;8.80;100.00;96438.59;5037230;28;20209;-73
2021/03/27 05:05:15;;;;;;;6.70;2.93;;;;;;;8.80;100.00;96451.72;5037005;28;20213;-73
2021/03/27 05:07:50;;;;;;;5.50;3.43;;;;;;;8.77;100.00;96444.97;5037133;28;20719;-73
2021/03/27 05:10:26;;;;;;;6.23;3.57;;;;;;;8.73;100.00;96441.03;5037359;28;20692;-73
2021/03/27 05:13:09;;;;;;;6.03;3.13;;;;;;;8.74;100.00;96444.47;5037706;28;20213;-74
2021/03/27 05:15:46;;;;;;;5.17;3.10;;;;;;;8.79;100.00;96444.81;5036775;28;20232;-73
2021/03/27 05:18:39;;;;;;;4.37;3.30;;;;;;;8.82;100.00;96461.09;5037289;28;20418;-74
2021/03/27 05:21:12;;;;;;;5.73;2.90;;;;;;;8.80;100.00;96463.03;5036854;28;20209;-73
2021/03/27 05:23:50;;;;;;;4.37;2.50;;;;;;;8.79;100.00;96463.22;5037318;28;20201;-73
2021/03/27 05:26:27;;;;;;;4.77;3.10;;;;;;;8.83;100.00;96469.78;5036559;28;20229;-73
2021/03/27 05:29:11;;;;;;;4.83;2.20;;;;;;;8.81;100.00;96477.03;5037643;28;20204;-73
2021/03/27 05:31:46;;;;;;;6.37;3.03;;;;;;;8.77;100.00;96479.13;5036988;28;20236;-73
2021/03/27 05:34:22;;;;;;;4.27;2.50;;;;;;;8.75;100.00;96481.09;5037330;28;20212;-74
2021/03/27 05:37:18;;;;;;;5.20;2.77;;;;;;;8.68;100.00;96492.38;5036602;28;20240;-73
2021/03/27 05:39:52;;;;;;;6.20;3.03;;;;;;;8.72;100.00;96499.81;5037293;28;20213;-73
2021/03/27 05:43:08;;;;;;;3.50;1.80;;;;;;;8.76;100.00;96587.03;5036699;28;20219;-74
2021/03/27 05:46:16;;;;;;;2.40;1.00;;;;;;;7.44;100.00;96612.72;4974125;28;20265;-73
2021/03/27 05:49:25;;;;;;;4.93;1.33;;;;;;;6.96;100.00;96607.94;5035911;28;20223;-73
2021/03/27 05:52:14;;;;;;;5.73;1.37;;;;;;;6.83;100.00;96605.66;5036743;28;21166;-73
2021/03/27 05:55:04;;;;;;;3.10;0.93;;;;;;;6.65;100.00;96601.34;5036331;28;20205;-73
2021/03/27 05:58:24;;;;;;;2.80;1.03;;;;;;;6.66;100.00;96630.00;5036391;28;20228;-73
2021/03/27 06:00:56;;;;;;;7.27;2.10;;;;;;;6.71;100.00;96634.81;5036245;28;20204;-73
2021/03/27 06:03:50;;;;;;;1.13;1.00;;;;;;;6.69;100.00;96628.91;5036433;28;20205;-73
2021/03/27 06:06:38;;;;;;;1.93;1.23;;;;;;;6.74;100.00;96634.53;5035404;28;20280;-73
2021/03/27 06:09:34;;;;;;;4.03;0.80;;;;;;;6.71;100.00;96648.72;5037537;28;20216;-74
2021/03/27 06:12:39;;;;;;;1.77;0.80;;;;;;;6.67;100.00;96649.19;5038258;28;20261;-74
2021/03/27 06:15:46;;;;;;;1.30;0.60;;;;;;;6.55;100.00;96663.38;5035057;28;20205;-75
2021/03/27 06:18:53;;;;;;;1.83;0.80;;;;;;;6.53;100.00;96672.34;5035263;28;20217;-74
2021/03/27 06:21:32;;;;;;;1.53;0.90;;;;;;;6.60;100.00;96665.59;5042025;28;20871;-74
2021/03/27 06:24:10;;;;;;;0.93;0.60;;;;;;;6.54;100.00;96677.44;5041307;28;20571;-74
2021/03/27 06:26:58;;;;;;;4.37;3.97;;;;;;;6.56;100.00;96683.38;5041053;28;20252;-73
2021/03/27 06:29:56;;;;;;;2.07;1.00;;;;;;;6.60;100.00;96681.31;5041979;28;20204;-74
2021/03/27 06:32:59;;;;;;;0.80;0.80;;;;;;;6.62;100.00;96690.66;5041172;28;20847;-74
2021/03/27 06:35:42;;;;;;;2.07;1.00;;;;;;;6.64;100.00;96685.28;5041343;28;20205;-74
2021/03/27 06:38:33;;;;;;;2.13;0.97;;;;;;;6.65;100.00;96682.53;5041171;28;20244;-73
2021/03/27 06:41:12;;;;;;;2.23;1.23;;;;;;;6.69;100.00;96703.06;5040813;28;20221;-73
2021/03/27 06:44:08;;;;;;;3.67;1.40;;;;;;;6.77;100.00;96712.78;5041450;28;20201;-72
2021/03/27 06:46:50;;;;;;;2.07;1.10;;;;;;;6.77;100.00;96726.72;5040135;28;20224;-74
2021/03/27 06:49:49;;;;;;;6.83;1.00;;;;;;;6.81;100.00;96722.00;5041375;28;20274;-73
2021/03/27 06:52:35;;;;;;;0.90;0.80;;;;;;;6.81;100.00;96719.41;5029556;28;20213;-74
2021/03/27 06:55:23;;;;;;;2.20;0.80;;;;;;;6.85;100.00;96728.66;5040526;28;20270;-72
2021/03/27 06:58:18;;;;;;;1.67;1.03;;;;;;;6.90;100.00;96726.44;5041555;28;20228;-74
2021/03/27 07:00:51;;;;;;;2.33;1.00;;;;;;;6.89;100.00;96743.91;5040241;28;20217;-73
2021/03/27 07:04:06;;;;;;;3.03;1.10;;;;;;;6.93;100.00;96750.53;5040351;28;20209;-74
2021/03/27 07:07:07;;;;;;;2.63;1.13;;;;;;;6.96;100.00;96763.38;5040427;28;20394;-73
2021/03/27 07:10:21;;;;;;;3.43;1.30;;;;;;;6.99;100.00;96762.25;5040799;28;20228;-73
2021/03/27 07:13:07;;;;;;;2.70;1.10;;;;;;;6.99;100.00;96770.09;5020139;28;21203;-74
2021/03/27 07:16:07;;;;;;;0.80;0.63;;;;;;;6.98;100.00;96763.22;5038833;28;20775;-74
2021/03/27 07:19:03;;;;;;;1.40;1.00;;;;;;;7.00;100.00;96774.34;5040865;28;20225;-74
2021/03/27 07:21:50;;;;;;;0.93;0.60;;;;;;;6.98;100.00;96776.31;5033578;28;20197;-73
2021/03/27 07:24:35;;;;;;;1.23;0.73;;;;;;;6.93;100.00;96774.09;5040290;28;20219;-74
2021/03/27 07:27:35;;;;;;;3.33;0.80;;;;;;;6.84;100.00;96790.66;5039681;28;20233;-75
2021/03/27 07:30:33;;;;;;;13.73;4.33;;;;;;;6.90;100.00;96805.03;5041365;28;20201;-75
2021/03/27 07:33:41;;;;;;;9.93;3.50;;;;;;;6.83;100.00;96796.06;5032839;28;20205;-74
2021/03/27 07:36:51;;;;;;;4.67;1.63;;;;;;;6.81;100.00;96813.69;5009077;28;20229;-73
2021/03/27 07:39:35;;;;;;;1.83;1.30;;;;;;;6.72;97.93;96827.63;5039785;28;20224;-74
2021/03/27 07:42:25;;;;;;;1.20;0.63;;;;;;;6.77;99.70;96838.50;5040302;28;20224;-74
2021/03/27 07:45:00;;;;;;;1.93;1.53;;;;;;;6.71;95.20;96831.22;5040548;28;20644;-73
2021/03/27 07:47:48;;;;;;;3.50;1.50;;;;;;;6.76;96.74;96839.50;5040024;28;20225;-74
2021/03/27 07:50:54;;;;;;;3.30;1.20;;;;;;;6.73;96.63;96842.38;5040604;28;20272;-74
2021/03/27 07:53:57;;;;;;;1.27;0.93;;;;;;;6.73;95.00;96871.19;5040631;28;20205;-74
2021/03/27 07:56:40;;;;;;;2.13;1.23;;;;;;;6.73;95.36;96861.56;5039259;28;20233;-74
2021/03/27 07:59:52;;;;;;;2.87;1.00;;;;;;;6.71;94.74;96866.09;5040488;28;20221;-73
2021/03/27 08:02:37;;;;;;;1.07;0.57;;;;;;;6.68;91.77;96863.75;5039991;28;20205;-75
2021/03/27 08:05:37;;;;;;;2.17;1.17;;;;;;;6.73;92.00;96872.03;5039093;28;20213;-72
2021/03/27 08:08:34;;;;;;;2.73;1.60;;;;;;;6.75;92.69;96870.09;5039998;28;20212;-73
2021/03/27 08:11:12;;;;;;;1.60;1.07;;;;;;;6.77;91.27;96872.56;5040492;28;20205;-75
2021/03/27 08:14:10;;;;;;;3.37;1.00;;;;;;;6.79;92.22;96874.06;5040885;28;20259;-74
2021/03/27 08:16:45;;;;;;;1.80;1.00;;;;;;;6.75;89.68;96877.94;5038761;28;20229;-75
2021/03/27 08:19:37;;;;;;;9.97;3.10;;;;;;;6.78;90.33;96882.91;5040104;28;20228;-75
2021/03/27 08:22:51;;;;;;;3.83;0.90;;;;;;;6.80;90.46;96908.97;5039960;28;20212;-75
2021/03/27 08:25:29;;;;;;;1.30;0.87;;;;;;;6.84;88.78;96899.88;5026324;28;20691;-73
2021/03/27 08:28:11;;;;;;;4.43;1.23;;;;;;;6.90;86.13;96892.28;5040146;28;20205;-74
2021/03/27 08:31:13;;;;;;;2.40;1.00;;;;;;;6.96;88.33;96904.00;5040023;28;20205;-74
2021/03/27 08:34:13;;;;;;;1.07;0.80;;;;;;;6.99;86.90;96914.22;5040456;28;20255;-73
2021/03/27 08:37:04;;;;;;;3.37;0.90;;;;;;;7.20;86.12;96902.59;5039080;28;20221;-74
2021/03/27 08:40:30;;;;;;;1.40;0.93;;;;;;;7.18;85.05;96915.00;5039391;28;20229;-74
2021/03/27 08:43:38;;;;;;;2.73;1.10;;;;;;;7.28;87.02;96906.16;4997710;28;20212;-75
2021/03/27 08:46:26;;;;;;;2.73;1.10;;;;;;;7.40;88.52;96915.50;5036847;28;20229;-73
2021/03/27 08:49:12;;;;;;;2.47;1.23;;;;;;;7.49;86.33;96919.91;5041776;28;20197;-74
2021/03/27 08:51:46;;;;;;;1.67;0.90;;;;;;;7.56;85.42;96931.50;5039016;28;20201;-74
2021/03/27 08:54:54;;;;;;;0.90;0.70;;;;;;;7.55;89.88;96932.47;5040374;28;20552;-73
2021/03/27 08:57:53;;;;;;;1.77;0.93;;;;;;;7.43;91.26;96927.50;4977466;28;20234;-73
2021/03/27 09:00:48;;;;;;;1.30;0.80;;;;;;;7.48;89.87;96933.97;4978966;28;20234;-75
2021/03/27 09:03:40;;;;;;;1.43;1.00;;;;;;;7.54;89.31;96933.41;5035192;28;20647;-75
2021/03/27 09:06:29;;;;;;;1.87;0.87;;;;;;;7.63;86.71;96932.56;5039207;28;20225;-74
2021/03/27 09:09:12;;;;;;;1.20;0.77;;;;;;;7.88;85.91;96937.19;5039723;28;20282;-72
2021/03/27 09:12:04;;;;;;;1.63;1.13;;;;;;;8.05;82.12;96939.06;5040419;28;20209;-75
2021/03/27 09:14:46;;;;;;;3.33;1.00;;;;;;;7.86;79.74;96954.88;5039943;28;20197;-73
2021/03/27 09:17:30;;;;;;;1.93;0.60;;;;;;;7.85;74.47;96958.44;5038836;28;21309;-74
2021/03/27 09:20:18;;;;;;;1.93;0.90;;;;;;;8.04;76.39;96953.16;5039857;28;20205;-75
2021/03/27 09:23:15;;;;;;;0.87;0.60;;;;;;;8.02;73.32;96944.59;5040547;28;20209;-75
2021/03/27 09:26:20;;;;;;;1.97;0.80;;;;;;;8.00;74.05;96959.66;5040088;28;20251;-74
2021/03/27 09:29:02;;;;;;;1.53;0.60;;;;;;;8.18;74.17;96971.09;5039937;28;20201;-73
2021/03/27 09:31:56;;;;;;;1.93;0.60;;;;;;;8.17;71.22;96966.78;5041561;28;20209;-75
2021/03/27 09:34:40;;;;;;;1.20;0.57;;;;;;;8.09;71.39;96971.91;5039510;28;20602;-75
2021/03/27 09:37:18;;;;;;;1.03;0.53;;;;;;;8.34;71.25;96974.75;5039549;28;20217;-73
2021/03/27 09:39:52;;;;;;;0.60;0.53;;;;;;;8.43;69.62;96975.69;5039695;28;20601;-75
2021/03/27 09:42:39;;;;;;;1.13;0.73;;;;;;;8.62;69.75;96985.09;5040620;28;20236;-74
2021/03/27 09:45:19;;;;;;;1.73;0.70;;;;;;;8.60;69.29;96988.84;5039759;28;21396;-75
2021/03/27 09:47:59;;;;;;;2.50;0.70;;;;;;;8.62;68.24;96985.09;5040138;28;20744;-75
2021/03/27 09:50:34;;;;;;;1.57;0.60;;;;;;;8.57;67.98;96976.81;5042297;28;20672;-73
2021/03/27 09:53:08;;;;;;;2.13;0.70;;;;;;;8.88;65.88;96988.66;5044048;28;20739;-73
2021/03/27 09:55:39;;;;;;;1.93;0.70;;;;;;;8.97;62.00;96982.50;5043401;28;20398;-75
2021/03/27 09:58:17;;;;;;;2.03;0.50;;;;;;;8.99;61.19;96993.72;5043568;28;20227;-72
2021/03/27 10:01:09;;;;;;;2.03;0.50;;;;;;;9.05;61.02;96998.38;5043287;28;20201;-74
2021/03/27 10:03:42;;;;;;;1.53;0.50;;;;;;;9.02;60.92;96982.88;5040365;28;20270;-74
2021/03/27 10:06:44;;;;;;;1.23;0.63;;;;;;;9.20;63.99;96981.09;5042790;28;20591;-73
2021/03/27 10:09:28;;;;;;;8.30;1.67;;;;;;;9.22;61.31;96992.28;5043768;28;20213;-76
2021/03/27 10:12:00;;;;;;;2.93;0.70;;;;;;;9.42;61.04;96991.13;5043620;28;20462;-75
2021/03/27 10:14:29;;;;;;;1.07;0.60;;;;;;;9.57;62.85;96987.84;5042956;28;20201;-75
2021/03/27 10:16:59;;;;;;;1.03;0.60;;;;;;;9.72;62.83;96983.66;5042680;28;20225;-75
2021/03/27 10:19:34;;;;;;;0.93;0.40;;;;;;;9.60;59.21;96977.00;5043051;28;20258;-75
2021/03/27 10:22:13;;;;;;;1.53;0.70;;;;;;;9.37;60.21;96991.59;5042696;28;20219;-74
2021/03/27 10:24:46;;;;;;;2.47;0.70;;;;;;;9.40;60.09;96985.22;5042473;28;20204;-74
2021/03/27 10:27:19;;;;;;;0.60;0.60;;;;;;;9.79;62.70;96980.25;5042003;28;20221;-76
2021/03/27 10:29:54;;;;;;;2.87;0.53;;;;;;;9.60;58.52;96981.41;5042344;28;20279;-76
2021/03/27 10:32:50;;;;;;;1.70;0.73;;;;;;;9.24;60.66;96998.22;5041491;28;20208;-73
2021/03/27 10:35:34;;;;;;;1.00;0.43;;;;;;;9.08;60.90;97005.97;5039770;28;20589;-75
2021/03/27 10:38:08;;;;;;;3.43;0.87;;;;;;;9.39;60.48;96992.25;5040724;28;21203;-73
2021/03/27 10:40:38;;;;;;;3.70;0.80;;;;;;;9.74;60.91;96997.50;5042253;28;20206;-75
2021/03/27 10:43:45;;;;;;;0.53;0.40;;;;;;;9.80;58.50;97000.34;5041477;28;20259;-74
2021/03/27 10:46:29;;;;;;;0.70;0.60;;;;;;;9.25;58.14;97003.34;5009946;28;20734;-75
2021/03/27 10:49:15;;;;;;;2.10;0.73;;;;;;;9.45;58.73;97007.44;5039151;28;20197;-74
2021/03/27 10:52:25;;;;;;;1.07;0.60;;;;;;;9.77;58.40;97011.16;5040897;28;20672;-76
2021/03/27 10:55:24;;;;;;;0.60;0.53;;;;;;;9.68;55.92;97011.25;5041025;28;20228;-75
2021/03/27 10:58:24;;;;;;;1.10;0.70;;;;;;;9.92;56.39;97011.44;5040848;28;20243;-74
2021/03/27 11:01:00;;;;;;;0.40;0.40;;;;;;;10.17;54.24;97003.59;5040325;28;20205;-75
2021/03/27 11:03:45;;;;;;;1.20;0.50;;;;;;;10.06;49.38;97001.19;5041479;28;20205;-75
2021/03/27 11:06:29;;;;;;;0.60;0.40;;;;;;;10.11;51.63;97000.75;5039981;28;20367;-74
2021/03/27 11:09:28;;;;;;;1.53;0.70;;;;;;;10.14;49.93;97009.13;5037549;28;20212;-75
2021/03/27 11:12:29;;;;;;;1.03;0.50;;;;;;;10.23;49.73;96994.22;5039748;28;20208;-74
2021/03/27 11:15:15;;;;;;;1.87;0.60;;;;;;;10.34;49.29;96989.50;5008910;28;20212;-73
2021/03/27 11:18:16;;;;;;;1.90;0.60;;;;;;;10.36;48.14;97004.19;5041752;28;20743;-74
2021/03/27 11:20:58;;;;;;;1.07;0.53;;;;;;;10.35;48.80;96985.91;5041989;28;20204;-73
2021/03/27 11:23:42;;;;;;;0.87;0.50;;;;;;;10.36;49.80;97021.78;5040626;28;20236;-75
2021/03/27 11:26:37;;;;;;;1.17;0.40;;;;;;;9.72;48.83;97000.28;5039537;28;20298;-74
2021/03/27 11:29:27;;;;;;;2.10;0.70;;;;;;;9.56;50.49;97012.50;5039740;28;20208;-75
2021/03/27 11:32:02;;;;;;;4.47;0.60;;;;;;;9.45;49.97;96998.75;5040705;28;20244;-74
2021/03/27 11:34:34;;;;;;;2.10;0.40;;;;;;;9.49;48.94;97007.97;5040406;28;20560;-75
2021/03/27 11:37:07;;;;;;;1.67;0.70;;;;;;;9.85;48.46;97013.03;5039944;28;20229;-75
2021/03/27 11:39:42;;;;;;;0.37;0.37;;;;;;;9.96;47.84;97005.72;5040851;28;20228;-75
2021/03/27 11:42:22;;;;;;;1.03;0.70;;;;;;;10.52;48.81;97003.41;5041631;28;20228;-73
2021/03/27 11:45:03;;;;;;;1.43;0.50;;;;;;;10.74;47.60;96997.56;5040173;28;20209;-75
2021/03/27 11:47:35;;;;;;;1.37;0.50;;;;;;;10.88;47.20;97002.25;5040475;28;20232;-74
2021/03/27 11:50:30;;;;;;;2.70;0.83;;;;;;;11.35;46.48;96999.69;5041538;28;20205;-74
2021/03/27 11:53:06;;;;;;;2.27;0.70;;;;;;;11.73;46.70;97007.00;5040900;28;20201;-75
2021/03/27 11:55:36;;;;;;;0.70;0.60;;;;;;;11.44;44.87;96998.72;5039475;28;20286;-74
2021/03/27 11:58:19;;;;;;;1.17;0.50;;;;;;;11.30;44.96;97001.19;5039449;28;21270;-73
2021/03/27 12:01:01;;;;;;;0.83;0.40;;;;;;;11.42;44.09;96994.59;5040661;28;20216;-76
2021/03/27 12:03:37;;;;;;;0.90;0.50;;;;;;;11.06;43.40;97006.41;5039214;28;20281;-74
2021/03/27 12:06:18;;;;;;;1.77;0.57;;;;;;;10.85;46.75;97015.75;5039153;28;20236;-74
2021/03/27 12:08:54;;;;;;;0.53;0.50;;;;;;;10.73;47.09;97004.66;5039900;28;20205;-72
2021/03/27 12:11:29;;;;;;;1.33;0.50;;;;;;;10.97;44.90;97020.53;5039995;28;20201;-74
2021/03/27 12:14:03;;;;;;;3.10;0.60;;;;;;;10.64;45.50;97003.00;5039041;28;20208;-74
2021/03/27 12:16:37;;;;;;;0.70;0.50;;;;;;;10.49;44.56;97001.94;5037909;28;20221;-73
2021/03/27 12:19:19;;;;;;;1.13;0.40;;;;;;;10.45;43.76;96994.47;5037281;28;20252;-74
2021/03/27 12:21:54;;;;;;;1.27;0.57;;;;;;;10.82;43.41;96997.59;5039252;28;20219;-75
2021/03/27 12:24:41;;;;;;;0.63;0.47;;;;;;;11.29;43.64;96996.88;5039065;28;20205;-75
2021/03/27 12:27:18;;;;;;;0.43;0.40;;;;;;;11.50;41.98;96998.09;5038608;28;20242;-74
2021/03/27 12:29:47;;;;;;;0.47;0.40;;;;;;;11.68;42.55;96993.47;5040599;28;20197;-75
2021/03/27 12:32:39;;;;;;;0.83;0.50;;;;;;;11.77;45.51;96985.41;5041078;28;20205;-75
2021/03/27 12:35:16;;;;;;;0.93;0.60;;;;;;;11.40;46.95;96994.75;5039932;28;20209;-75
2021/03/27 12:37:51;;;;;;;1.17;0.77;;;;;;;11.07;47.10;97001.00;5040341;28;20282;-74
2021/03/27 12:40:26;;;;;;;2.70;0.60;;;;;;;10.77;46.74;96994.59;5040212;28;20204;-74
2021/03/27 12:43:04;;;;;;;2.53;0.90;;;;;;;10.63;45.34;97011.06;5039813;28;20793;-74
2021/03/27 12:45:35;;;;;;;0.93;0.50;;;;;;;11.06;45.41;97004.59;5038963;28;20225;-71